Terminal Aerodrome Forecast
Issued by NWS

Home | Current Version | Previous Version | Text Only | Print | Product List | Glossary On
Versions: 1 2 3 4 5 6 7 8 9 10 11 12 13 14 15 16 17 18 19 20 21 22 23 24 25 26 27 28 29 30 31
000
FTUS44 KOUN 072330
TAFHBR
TAF
KHBR 072330Z 0800/0824 02012G20KT 3SM -RA BR OVC009
     FM080200 01010KT 4SM BR OVC005
     FM081600 01007KT P6SM OVC020=

USA.gov is the U.S. government's official web portal to all federal, state and local government web resources and services.